Time;durP1;ratioP1;P1;durP2;ratioP2;P2;SDS_P1;SDS_P2;PMS_P1;PMS_P2;Temp;Humidity;BMP_temperature;BMP_pressure;BME280_temperature;BME280_humidity;BME280_pressure;Samples;Min_cycle;Max_cycle;Signal;HPM_P1;HPM_P2
2021/08/22 00:00:19;;;;;;;12.35;8.82;;;21.00;7.70;;;;;;5106476;28;20038;-74
2021/08/22 00:03:10;;;;;;;10.45;8.60;;;21.10;7.10;;;;;;5099368;28;20033;-73
2021/08/22 00:06:00;;;;;;;14.82;8.88;;;21.00;6.80;;;;;;5101168;28;20559;-74
2021/08/22 00:08:49;;;;;;;11.82;8.30;;;21.00;7.30;;;;;;5103544;28;20050;-74
2021/08/22 00:11:38;;;;;;;12.15;8.80;;;20.80;7.70;;;;;;5104401;28;20047;-74
2021/08/22 00:14:26;;;;;;;9.27;8.25;;;20.80;8.30;;;;;;5100401;28;20051;-74
2021/08/22 00:17:15;;;;;;;11.50;8.90;;;20.80;8.40;;;;;;5102121;28;20051;-73
2021/08/22 00:20:07;;;;;;;8.98;7.90;;;20.50;11.30;;;;;;5103759;28;20052;-73
2021/08/22 00:22:56;;;;;;;10.10;6.03;;;20.30;12.60;;;;;;5100566;28;20055;-71
2021/08/22 00:25:44;;;;;;;7.00;4.40;;;20.20;9.80;;;;;;5070267;28;21566;-75
2021/08/22 00:28:36;;;;;;;6.57;2.22;;;19.70;9.10;;;;;;5081837;28;20036;-73
2021/08/22 00:31:25;;;;;;;5.25;1.63;;;18.40;11.10;;;;;;5082984;28;20044;-72
2021/08/22 00:34:13;;;;;;;5.45;1.70;;;17.80;16.60;;;;;;5085324;28;20441;-72
2021/08/22 00:37:03;;;;;;;3.55;2.08;;;17.40;21.20;;;;;;5086140;28;20052;-72
2021/08/22 00:39:51;;;;;;;3.38;1.88;;;17.30;26.50;;;;;;5100119;28;20051;-72
2021/08/22 00:42:40;;;;;;;5.63;1.90;;;17.00;26.90;;;;;;5099001;28;20533;-72
2021/08/22 00:45:28;;;;;;;5.10;2.13;;;16.80;34.50;;;;;;5101218;28;20048;-72
2021/08/22 00:48:21;;;;;;;3.78;1.90;;;16.80;40.30;;;;;;5104321;28;20071;-72
2021/08/22 00:51:10;;;;;;;3.85;1.70;;;16.80;40.60;;;;;;5087126;28;20047;-72
2021/08/22 00:54:00;;;;;;;2.40;1.42;;;16.90;42.40;;;;;;5102884;27;20047;-72
2021/08/22 00:56:50;;;;;;;2.60;1.40;;;16.70;43.00;;;;;;5101783;28;20062;-72
2021/08/22 00:59:39;;;;;;;2.67;1.70;;;16.70;44.50;;;;;;5100113;28;20047;-71
2021/08/22 01:02:33;;;;;;;3.03;1.40;;;16.80;46.40;;;;;;5099276;28;20119;-71
2021/08/22 01:05:31;;;;;;;5.32;1.70;;;16.80;47.30;;;;;;5100611;28;20070;-71
2021/08/22 01:08:25;;;;;;;2.00;1.30;;;16.70;47.20;;;;;;5073415;28;20040;-71
2021/08/22 01:11:17;;;;;;;3.92;1.83;;;16.70;48.70;;;;;;5102165;28;20036;-71
2021/08/22 01:14:12;;;;;;;2.72;1.33;;;16.60;47.30;;;;;;5101156;28;20040;-71
2021/08/22 01:17:02;;;;;;;3.30;1.70;;;16.60;46.30;;;;;;5099341;28;20051;-71
2021/08/22 01:19:58;;;;;;;3.25;1.70;;;16.70;50.30;;;;;;5103439;28;20046;-71
2021/08/22 01:22:46;;;;;;;3.35;2.42;;;16.70;49.60;;;;;;5090229;28;20089;-72
2021/08/22 01:25:39;;;;;;;3.60;1.73;;;16.90;50.10;;;;;;5103225;28;20047;-71
2021/08/22 01:28:29;;;;;;;3.40;1.85;;;17.00;48.10;;;;;;5098811;28;20051;-72
2021/08/22 01:31:20;;;;;;;3.08;1.98;;;17.00;50.10;;;;;;5104519;28;20047;-71
2021/08/22 01:34:10;;;;;;;3.30;1.50;;;16.90;51.10;;;;;;5090998;28;20513;-71
2021/08/22 01:37:00;;;;;;;6.70;2.17;;;16.90;51.00;;;;;;5100920;28;20521;-72
2021/08/22 01:39:48;;;;;;;2.60;2.10;;;16.90;51.50;;;;;;5101169;28;20118;-71
2021/08/22 01:42:38;;;;;;;2.92;2.08;;;16.90;51.20;;;;;;5101231;28;20039;-71
2021/08/22 01:45:27;;;;;;;4.22;2.22;;;16.90;51.50;;;;;;5100465;28;20086;-72
2021/08/22 01:48:16;;;;;;;4.13;2.00;;;16.90;51.70;;;;;;5101413;28;20036;-72
2021/08/22 01:51:06;;;;;;;4.78;2.17;;;17.00;53.60;;;;;;5097060;28;20051;-72
2021/08/22 01:53:56;;;;;;;5.32;3.50;;;17.00;55.70;;;;;;5102871;28;20070;-72
2021/08/22 01:56:46;;;;;;;3.47;2.35;;;17.00;55.60;;;;;;5098481;28;20054;-72
2021/08/22 01:59:43;;;;;;;3.75;2.20;;;17.00;55.70;;;;;;5104172;28;20047;-72
2021/08/22 02:02:32;;;;;;;4.80;2.20;;;17.10;55.80;;;;;;5085703;28;20482;-71
2021/08/22 02:05:23;;;;;;;2.92;2.03;;;17.00;55.70;;;;;;5088002;28;20059;-72
2021/08/22 02:08:16;;;;;;;4.75;2.50;;;16.90;56.00;;;;;;5107027;28;20807;-72
2021/08/22 02:11:12;;;;;;;4.35;2.50;;;16.90;55.60;;;;;;5106214;28;20059;-71
2021/08/22 02:14:01;;;;;;;5.88;2.33;;;16.80;56.00;;;;;;5104733;28;20047;-71
2021/08/22 02:16:52;;;;;;;6.55;2.75;;;16.70;55.60;;;;;;5103734;27;20047;-72
2021/08/22 02:19:41;;;;;;;5.18;2.70;;;16.80;56.70;;;;;;5107392;28;20518;-72
2021/08/22 02:22:30;;;;;;;3.50;2.53;;;16.80;55.50;;;;;;5102845;28;20040;-71
2021/08/22 02:25:21;;;;;;;5.28;2.70;;;16.80;55.50;;;;;;5101848;28;20487;-72
2021/08/22 02:28:09;;;;;;;3.90;2.60;;;16.80;55.70;;;;;;5105893;27;20067;-71
2021/08/22 02:30:58;;;;;;;3.80;2.42;;;16.80;56.60;;;;;;5102261;28;20067;-71
2021/08/22 02:33:46;;;;;;;4.57;2.78;;;16.80;56.20;;;;;;5105688;28;20039;-71
2021/08/22 02:36:35;;;;;;;6.88;2.95;;;16.80;57.20;;;;;;5103057;28;20043;-71
2021/08/22 02:39:23;;;;;;;3.17;2.60;;;16.80;57.00;;;;;;5108468;27;20032;-71
2021/08/22 02:42:13;;;;;;;5.13;3.63;;;16.90;57.40;;;;;;5101247;28;20040;-72
2021/08/22 02:45:01;;;;;;;5.53;3.90;;;16.90;57.10;;;;;;5098910;28;20050;-72
2021/08/22 02:47:49;;;;;;;7.07;3.90;;;16.90;58.40;;;;;;5105293;28;20047;-72
2021/08/22 02:50:38;;;;;;;5.38;3.83;;;16.90;58.80;;;;;;5103054;28;20415;-71
2021/08/22 02:53:26;;;;;;;7.22;4.18;;;17.00;59.60;;;;;;5098238;28;20048;-71
2021/08/22 02:56:14;;;;;;;5.18;4.03;;;16.90;59.30;;;;;;5083660;28;20703;-71
2021/08/22 02:59:04;;;;;;;5.43;4.18;;;17.10;59.80;;;;;;5082751;28;20040;-71
2021/08/22 03:01:53;;;;;;;5.55;4.47;;;17.10;59.70;;;;;;5085374;28;20072;-72
2021/08/22 03:04:41;;;;;;;5.28;4.35;;;17.10;59.20;;;;;;5084054;28;20063;-71
2021/08/22 03:07:30;;;;;;;5.70;4.28;;;17.10;58.90;;;;;;5083705;28;20063;-72
2021/08/22 03:10:18;;;;;;;5.72;4.10;;;17.10;59.70;;;;;;5080580;28;20044;-72
2021/08/22 03:13:07;;;;;;;6.20;3.88;;;17.20;59.40;;;;;;5084449;28;20048;-72
2021/08/22 03:15:56;;;;;;;7.18;4.03;;;17.20;58.90;;;;;;5067119;28;20049;-72
2021/08/22 03:18:45;;;;;;;7.47;4.53;;;17.20;59.70;;;;;;5071363;28;20059;-72
2021/08/22 03:21:33;;;;;;;6.57;4.20;;;17.20;59.90;;;;;;5081309;28;20415;-72
2021/08/22 03:24:21;;;;;;;5.90;3.90;;;17.30;60.10;;;;;;5081516;28;20052;-71
2021/08/22 03:27:10;;;;;;;6.78;4.15;;;17.20;59.70;;;;;;5084486;28;20042;-72
2021/08/22 03:29:58;;;;;;;5.93;4.13;;;17.20;60.40;;;;;;5087449;28;20040;-72
2021/08/22 03:32:48;;;;;;;5.15;4.13;;;17.30;60.30;;;;;;5082554;28;20046;-72
2021/08/22 03:35:37;;;;;;;5.88;4.22;;;17.20;59.90;;;;;;5077325;28;20866;-72
2021/08/22 03:38:25;;;;;;;4.88;3.85;;;17.20;59.90;;;;;;5076432;28;20051;-72
2021/08/22 03:41:13;;;;;;;5.55;4.25;;;17.20;60.00;;;;;;5084043;28;20036;-73
2021/08/22 03:44:03;;;;;;;7.22;4.28;;;17.20;60.20;;;;;;5082828;28;20115;-73
2021/08/22 03:46:52;;;;;;;6.00;3.67;;;17.20;60.30;;;;;;5081336;28;20932;-73
2021/08/22 03:49:42;;;;;;;5.35;3.75;;;17.20;59.80;;;;;;5084298;28;21015;-73
2021/08/22 03:52:30;;;;;;;5.28;3.83;;;17.30;59.90;;;;;;5077674;28;20044;-73
2021/08/22 03:55:19;;;;;;;4.57;3.92;;;17.20;59.60;;;;;;5101498;28;20058;-73
2021/08/22 03:58:10;;;;;;;6.30;4.05;;;17.30;59.80;;;;;;5102963;28;20047;-73
2021/08/22 04:01:00;;;;;;;4.28;3.85;;;17.20;58.30;;;;;;5087351;28;20065;-73
2021/08/22 04:03:50;;;;;;;7.47;4.40;;;17.20;58.50;;;;;;5105390;28;20392;-73
2021/08/22 04:06:55;;;;;;;6.22;3.80;;;17.00;59.30;;;;;;5080239;28;21883;-73
2021/08/22 04:09:43;;;;;;;6.25;3.75;;;17.00;58.90;;;;;;5105280;28;20157;-73
2021/08/22 04:12:33;;;;;;;3.97;3.55;;;17.00;59.10;;;;;;5105607;27;20044;-73
2021/08/22 04:15:21;;;;;;;5.85;3.72;;;17.10;59.60;;;;;;5099599;28;20047;-71
2021/08/22 04:18:10;;;;;;;5.30;4.20;;;17.20;60.50;;;;;;5101598;28;20051;-72
2021/08/22 04:20:58;;;;;;;5.75;4.30;;;17.20;60.70;;;;;;5094902;28;20040;-72
2021/08/22 04:23:48;;;;;;;6.65;3.85;;;17.20;60.70;;;;;;5105842;28;20036;-72
2021/08/22 04:26:38;;;;;;;5.50;3.97;;;17.20;60.20;;;;;;5097908;28;20035;-72
2021/08/22 04:29:27;;;;;;;6.72;4.13;;;17.20;60.60;;;;;;5100600;28;20039;-72
2021/08/22 04:32:15;;;;;;;6.32;4.20;;;17.10;60.00;;;;;;5098945;28;20702;-72
2021/08/22 04:35:04;;;;;;;6.18;4.20;;;17.20;60.50;;;;;;5104070;28;20279;-72
2021/08/22 04:37:53;;;;;;;6.63;4.38;;;17.20;60.50;;;;;;5104596;28;20516;-73
2021/08/22 04:40:42;;;;;;;5.40;3.85;;;17.30;60.50;;;;;;5102965;28;20040;-73
2021/08/22 04:43:31;;;;;;;5.55;4.18;;;17.30;60.10;;;;;;5101589;28;20141;-73
2021/08/22 04:46:19;;;;;;;6.53;4.47;;;17.40;60.40;;;;;;5098383;28;20039;-73
2021/08/22 04:49:08;;;;;;;5.55;3.97;;;17.40;60.10;;;;;;5102730;28;20047;-73
2021/08/22 04:51:56;;;;;;;5.28;4.00;;;17.40;59.40;;;;;;5103385;28;20509;-73
2021/08/22 04:54:45;;;;;;;5.90;3.58;;;17.40;58.70;;;;;;5103235;28;20137;-73
2021/08/22 04:57:35;;;;;;;9.75;4.70;;;17.60;56.20;;;;;;5079124;28;20058;-73
2021/08/22 05:00:23;;;;;;;4.63;3.83;;;18.00;54.40;;;;;;5103866;28;20042;-73
2021/08/22 05:03:12;;;;;;;5.47;3.92;;;17.90;54.00;;;;;;5102221;27;20501;-73
2021/08/22 05:06:00;;;;;;;6.47;4.32;;;17.90;56.50;;;;;;5098973;28;20046;-73
2021/08/22 05:08:49;;;;;;;5.43;3.67;;;17.90;55.30;;;;;;5102303;28;20076;-73
2021/08/22 05:11:37;;;;;;;5.63;3.92;;;17.90;55.90;;;;;;5104306;28;20044;-73
2021/08/22 05:14:30;;;;;;;6.88;3.70;;;17.90;54.00;;;;;;5102147;28;20423;-73
2021/08/22 05:17:18;;;;;;;5.85;3.60;;;17.90;53.40;;;;;;5102294;28;20040;-73
2021/08/22 05:20:08;;;;;;;6.57;3.72;;;17.80;54.50;;;;;;5101716;28;20410;-73
2021/08/22 05:22:56;;;;;;;7.85;4.18;;;17.90;56.50;;;;;;5105162;28;20050;-73
2021/08/22 05:25:45;;;;;;;6.85;4.00;;;17.80;56.40;;;;;;5103225;28;20081;-73
2021/08/22 05:28:33;;;;;;;7.65;4.30;;;17.80;57.30;;;;;;5100327;28;20044;-74
2021/08/22 05:31:22;;;;;;;5.22;3.83;;;17.80;57.00;;;;;;5099082;28;20507;-73
2021/08/22 05:34:11;;;;;;;5.38;3.65;;;17.90;56.50;;;;;;5102453;28;20044;-72
2021/08/22 05:37:00;;;;;;;6.03;3.45;;;17.70;55.20;;;;;;5100635;28;20043;-72
2021/08/22 05:39:50;;;;;;;8.48;4.50;;;17.80;54.90;;;;;;5102316;28;20503;-72
2021/08/22 05:42:38;;;;;;;6.30;3.90;;;17.80;55.10;;;;;;5105059;28;20054;-73
2021/08/22 05:45:26;;;;;;;8.27;3.67;;;17.90;55.20;;;;;;5107489;28;20521;-73
2021/08/22 05:48:16;;;;;;;6.63;3.90;;;17.90;56.50;;;;;;5102921;28;20051;-73
2021/08/22 05:51:05;;;;;;;6.53;4.15;;;17.90;58.00;;;;;;5103517;27;20044;-73
2021/08/22 05:53:53;;;;;;;5.75;3.88;;;17.90;56.50;;;;;;5108012;28;20047;-73
2021/08/22 05:56:41;;;;;;;6.72;3.97;;;18.00;56.50;;;;;;5104219;28;20042;-73
2021/08/22 05:59:30;;;;;;;6.00;4.53;;;18.00;56.60;;;;;;5108552;28;20490;-73
2021/08/22 06:02:18;;;;;;;6.20;3.97;;;18.00;55.50;;;;;;5100303;28;20094;-73
2021/08/22 06:05:09;;;;;;;5.50;4.22;;;18.20;56.50;;;;;;5106995;28;20502;-73
2021/08/22 06:07:58;;;;;;;8.13;4.70;;;18.20;55.40;;;;;;5104710;28;20042;-73
2021/08/22 06:10:46;;;;;;;5.57;4.25;;;18.30;56.50;;;;;;5103588;28;20043;-73
2021/08/22 06:13:35;;;;;;;5.78;4.22;;;18.30;56.20;;;;;;5104309;28;20054;-73
2021/08/22 06:16:23;;;;;;;7.07;4.53;;;18.30;55.60;;;;;;5104728;28;20093;-73
2021/08/22 06:19:12;;;;;;;4.82;4.28;;;18.30;56.20;;;;;;5109293;28;20229;-72
2021/08/22 06:22:03;;;;;;;6.60;4.55;;;18.40;55.50;;;;;;5105186;28;20279;-73
2021/08/22 06:24:51;;;;;;;7.05;4.40;;;18.40;54.00;;;;;;5106128;27;20055;-73
2021/08/22 06:27:39;;;;;;;6.05;4.05;;;18.50;54.40;;;;;;5103688;27;20039;-73
2021/08/22 06:30:28;;;;;;;6.72;4.40;;;18.60;53.20;;;;;;5107565;28;20092;-73
2021/08/22 06:33:16;;;;;;;5.43;4.28;;;18.80;52.70;;;;;;5105727;28;20045;-73
2021/08/22 06:36:06;;;;;;;5.03;3.88;;;18.90;51.60;;;;;;5101115;28;20042;-73
2021/08/22 06:38:56;;;;;;;6.68;4.05;;;18.90;50.70;;;;;;5107075;28;20055;-72
2021/08/22 06:41:44;;;;;;;6.18;4.15;;;18.90;49.70;;;;;;5106421;28;20130;-73
2021/08/22 06:44:33;;;;;;;5.88;4.40;;;19.20;48.80;;;;;;5101789;28;20048;-72
2021/08/22 06:47:21;;;;;;;10.07;4.50;;;19.30;46.20;;;;;;5086665;28;20550;-72
2021/08/22 06:50:11;;;;;;;7.28;4.22;;;19.30;46.30;;;;;;5105738;28;20122;-73
2021/08/22 06:52:59;;;;;;;4.85;4.30;;;19.30;49.50;;;;;;5106799;28;20112;-73
2021/08/22 06:55:49;;;;;;;4.90;3.70;;;19.40;45.40;;;;;;5103967;28;20483;-74
2021/08/22 06:58:37;;;;;;;5.75;4.07;;;19.50;45.20;;;;;;5103009;28;20040;-74
2021/08/22 07:01:25;;;;;;;6.43;4.20;;;19.50;44.70;;;;;;5100468;28;20066;-74
2021/08/22 07:04:14;;;;;;;4.80;3.90;;;19.50;44.00;;;;;;5105655;28;20067;-74
2021/08/22 07:07:03;;;;;;;4.88;4.18;;;19.50;44.70;;;;;;5103190;28;20869;-73
2021/08/22 07:09:51;;;;;;;4.60;3.63;;;19.50;43.10;;;;;;5087801;28;20039;-73
2021/08/22 07:12:41;;;;;;;5.93;4.07;;;19.60;41.30;;;;;;5104306;28;20506;-74
2021/08/22 07:15:29;;;;;;;7.72;4.05;;;19.60;39.80;;;;;;5105752;28;20043;-74
2021/08/22 07:18:18;;;;;;;6.63;4.15;;;19.60;40.30;;;;;;5102477;28;20120;-74
2021/08/22 07:21:07;;;;;;;4.35;3.67;;;19.60;44.30;;;;;;5101174;28;20055;-72
2021/08/22 07:23:55;;;;;;;8.35;4.10;;;19.60;45.60;;;;;;5107093;28;20044;-73
2021/08/22 07:26:44;;;;;;;5.50;3.80;;;19.70;45.00;;;;;;5101408;27;20052;-73
2021/08/22 07:29:35;;;;;;;7.78;4.10;;;19.70;43.70;;;;;;5101545;28;20137;-73
2021/08/22 07:32:23;;;;;;;4.65;3.95;;;19.70;44.00;;;;;;5104123;28;20783;-73
2021/08/22 07:35:11;;;;;;;5.00;4.05;;;19.70;41.40;;;;;;5102202;28;20403;-73
2021/08/22 07:38:00;;;;;;;5.78;4.45;;;19.60;39.20;;;;;;5099638;27;20040;-72
2021/08/22 07:40:49;;;;;;;4.43;3.70;;;19.60;41.50;;;;;;5103944;28;20043;-73
2021/08/22 07:43:38;;;;;;;6.78;4.18;;;19.60;41.30;;;;;;5104857;28;20043;-73
2021/08/22 07:46:27;;;;;;;7.78;4.07;;;19.70;42.50;;;;;;5101350;28;20076;-73
2021/08/22 07:49:18;;;;;;;4.68;3.78;;;19.50;42.30;;;;;;5103877;28;20475;-73
2021/08/22 07:52:07;;;;;;;5.40;4.50;;;19.50;44.70;;;;;;5104336;28;20066;-74
2021/08/22 07:54:55;;;;;;;6.07;4.13;;;19.40;43.00;;;;;;5082084;28;20056;-72
2021/08/22 07:57:44;;;;;;;5.53;4.13;;;19.60;44.60;;;;;;5098036;28;20058;-73
2021/08/22 08:00:33;;;;;;;6.97;4.60;;;19.70;44.00;;;;;;5081497;28;20040;-73
2021/08/22 08:03:22;;;;;;;4.82;3.67;;;19.90;43.30;;;;;;5086734;28;20036;-73
2021/08/22 08:06:11;;;;;;;4.35;3.78;;;20.00;37.40;;;;;;5081936;28;20182;-73
2021/08/22 08:09:00;;;;;;;5.80;3.80;;;20.10;37.50;;;;;;5084048;28;20092;-72
2021/08/22 08:11:48;;;;;;;5.18;4.40;;;20.30;35.80;;;;;;5083257;28;20036;-72
2021/08/22 08:14:37;;;;;;;5.57;3.75;;;20.10;35.50;;;;;;5080495;28;20048;-72
2021/08/22 08:17:26;;;;;;;6.25;3.97;;;20.20;37.00;;;;;;5085812;28;20712;-72
2021/08/22 08:20:15;;;;;;;5.97;3.92;;;20.00;39.80;;;;;;5080120;28;20056;-73
2021/08/22 08:23:04;;;;;;;5.90;4.22;;;20.00;33.80;;;;;;5084133;28;20040;-73
2021/08/22 08:25:53;;;;;;;6.43;3.53;;;20.10;34.10;;;;;;5081768;28;20558;-73
2021/08/22 08:28:41;;;;;;;3.92;3.53;;;20.20;30.00;;;;;;5082806;28;20474;-72
2021/08/22 08:31:32;;;;;;;6.25;4.07;;;20.30;33.20;;;;;;5076855;28;20071;-72
2021/08/22 08:34:20;;;;;;;5.47;3.97;;;20.50;30.50;;;;;;5074799;28;20522;-73
2021/08/22 08:37:11;;;;;;;5.35;3.63;;;20.30;29.10;;;;;;5069483;28;20045;-73
2021/08/22 08:39:59;;;;;;;5.00;3.45;;;20.70;28.20;;;;;;5076970;28;20530;-73
2021/08/22 08:42:48;;;;;;;4.30;3.50;;;20.80;25.60;;;;;;5084527;28;20047;-73
2021/08/22 08:45:44;;;;;;;4.68;3.70;;;20.70;22.50;;;;;;5083469;28;20059;-73
2021/08/22 08:48:36;;;;;;;4.68;4.07;;;20.80;24.50;;;;;;5078573;28;20072;-72
2021/08/22 08:51:36;;;;;;;5.65;3.92;;;20.70;23.10;;;;;;5078963;28;20515;-72
2021/08/22 08:54:28;;;;;;;3.47;2.97;;;20.90;25.00;;;;;;5077019;28;20407;-72
2021/08/22 08:57:16;;;;;;;3.78;3.33;;;21.30;19.50;;;;;;5079969;28;20158;-73
2021/08/22 09:00:08;;;;;;;5.10;3.30;;;21.20;19.10;;;;;;5084675;28;20050;-73
2021/08/22 09:02:57;;;;;;;4.13;3.20;;;21.20;20.10;;;;;;5080981;28;20051;-73
2021/08/22 09:06:18;;;;;;;5.07;3.70;;;20.90;18.90;;;;;;5079104;28;20051;-72
2021/08/22 09:09:58;;;;;;;6.32;3.63;;;21.00;21.10;;;;;;5080888;28;20048;-73
2021/08/22 09:13:35;;;;;;;3.38;2.90;;;21.50;18.60;;;;;;5080870;28;20102;-72
2021/08/22 09:17:00;;;;;;;5.75;3.30;;;21.50;18.00;;;;;;5059960;28;20545;-72
2021/08/22 09:20:27;;;;;;;3.67;3.22;;;20.80;18.10;;;;;;5080612;27;20049;-72
2021/08/22 09:24:00;;;;;;;4.80;3.42;;;20.60;20.90;;;;;;5076951;28;20032;-73
2021/08/22 09:27:35;;;;;;;6.65;3.42;;;21.00;21.70;;;;;;5077787;28;20055;-73
2021/08/22 09:31:01;;;;;;;5.80;4.18;;;20.40;29.20;;;;;;5083617;28;20044;-71
2021/08/22 09:34:25;;;;;;;;;;;19.30;48.60;;;;;;5084452;28;20047;-73
2021/08/22 09:37:55;;;;;;;7.82;4.95;;;19.10;51.40;;;;;;5016597;28;19925;-73
2021/08/22 09:41:16;;;;;;;7.30;5.43;;;19.20;53.70;;;;;;5020336;28;20049;-73
2021/08/22 09:44:43;;;;;;;7.50;5.30;;;19.30;55.80;;;;;;5084583;28;20040;-74
2021/08/22 09:48:04;;;;;;;7.85;5.47;;;19.50;58.00;;;;;;5078496;28;20460;-74
2021/08/22 09:51:35;;;;;;;9.20;5.75;;;19.80;57.50;;;;;;5080703;28;20060;-74
2021/08/22 09:55:15;;;;;;;6.68;5.30;;;19.90;56.70;;;;;;5076758;28;20048;-73
2021/08/22 09:58:51;;;;;;;9.32;5.57;;;20.00;50.10;;;;;;5075683;28;20166;-74
2021/08/22 10:01:58;;;;;;;;;;;19.90;51.50;;;;;;5075362;28;20416;-74
2021/08/22 10:05:18;;;;;;;8.20;6.05;;;20.30;53.00;;;;;;5080709;28;19982;-74
2021/08/22 10:08:24;;;;;;;6.90;5.43;;;20.10;41.80;;;;;;5080551;28;20062;-74
2021/08/22 10:11:17;;;;;;;7.40;6.20;;;20.30;46.80;;;;;;5082104;28;20040;-74
2021/08/22 10:14:09;;;;;;;7.93;5.82;;;20.50;40.30;;;;;;5080410;28;20041;-74
2021/08/22 10:16:58;;;;;;;6.22;5.60;;;20.40;40.80;;;;;;5078401;28;20036;-74
2021/08/22 10:19:48;;;;;;;9.35;6.20;;;20.30;36.60;;;;;;5082511;28;20074;-75
2021/08/22 10:22:37;;;;;;;7.07;6.03;;;20.40;39.30;;;;;;5079133;28;20036;-75
2021/08/22 10:25:47;;;;;;;7.35;5.97;;;20.40;38.10;;;;;;5085349;28;20047;-76
2021/08/22 10:29:09;;;;;;;6.85;5.47;;;20.10;40.20;;;;;;5084253;28;20059;-73
2021/08/22 10:32:14;;;;;;;8.20;6.50;;;19.90;35.00;;;;;;5045367;28;20128;-75
2021/08/22 10:35:21;;;;;;;9.95;6.75;;;19.90;38.80;;;;;;5086176;28;20073;-73
2021/08/22 10:38:29;;;;;;;9.75;6.50;;;20.10;45.00;;;;;;5085583;28;20048;-74
2021/08/22 10:41:35;;;;;;;8.10;6.78;;;19.90;42.00;;;;;;5085264;28;20048;-75
2021/08/22 10:44:41;;;;;;;10.57;6.65;;;20.10;43.70;;;;;;5092016;28;20178;-74
2021/08/22 10:47:41;;;;;;;9.23;6.90;;;19.90;44.10;;;;;;5081620;28;20036;-74
2021/08/22 10:50:30;;;;;;;8.80;7.05;;;20.00;50.10;;;;;;5082617;28;20115;-75
2021/08/22 10:53:25;;;;;;;9.13;7.15;;;19.90;46.60;;;;;;5084584;28;20503;-74
2021/08/22 10:56:39;;;;;;;6.38;4.53;;;19.80;50.80;;;;;;5081522;28;20044;-79
2021/08/22 10:59:27;;;;;;;7.43;2.80;;;19.20;37.40;;;;;;5085597;28;20059;-78
2021/08/22 11:02:17;;;;;;;2.70;1.95;;;18.80;26.10;;;;;;5082762;28;20048;-78
2021/08/22 11:05:13;;;;;;;5.03;1.52;;;18.70;28.70;;;;;;5083275;28;20048;-78
2021/08/22 11:08:13;;;;;;;3.22;1.48;;;18.30;28.50;;;;;;5082657;28;20047;-78
2021/08/22 11:11:02;;;;;;;4.80;1.20;;;17.90;34.20;;;;;;5074954;28;20430;-77
2021/08/22 11:13:55;;;;;;;2.42;1.10;;;17.60;42.30;;;;;;5075550;28;20040;-75
2021/08/22 11:16:46;;;;;;;2.03;1.20;;;17.40;46.40;;;;;;5085182;28;20047;-76
2021/08/22 11:19:35;;;;;;;2.90;1.33;;;17.10;47.50;;;;;;5083354;28;20040;-76
2021/08/22 11:22:26;;;;;;;2.35;1.30;;;17.00;48.40;;;;;;5083074;28;20656;-76
2021/08/22 11:25:15;;;;;;;1.92;1.20;;;16.90;45.50;;;;;;5084915;28;20055;-76
2021/08/22 11:28:06;;;;;;;1.98;1.35;;;17.00;47.20;;;;;;5085556;28;20101;-77
2021/08/22 11:30:54;;;;;;;2.42;1.25;;;17.10;46.80;;;;;;5083090;28;20102;-77
2021/08/22 11:33:43;;;;;;;2.08;1.20;;;17.10;46.30;;;;;;5084302;28;20084;-76
2021/08/22 11:36:32;;;;;;;2.90;1.50;;;17.10;47.60;;;;;;5082270;28;20051;-78
2021/08/22 11:39:21;;;;;;;2.20;1.40;;;17.20;49.50;;;;;;5079197;28;20381;-75
2021/08/22 11:42:10;;;;;;;2.17;1.65;;;17.10;47.60;;;;;;5087426;28;20051;-76
2021/08/22 11:45:08;;;;;;;4.07;1.75;;;17.10;49.40;;;;;;5084503;28;20036;-75
2021/08/22 11:47:57;;;;;;;3.15;1.70;;;17.20;51.80;;;;;;5085084;28;20044;-76
2021/08/22 11:51:00;;;;;;;3.50;1.67;;;17.30;51.90;;;;;;5082333;28;20391;-77
2021/08/22 11:53:50;;;;;;;2.30;1.85;;;17.50;52.00;;;;;;5077841;28;20043;-77
2021/08/22 11:56:38;;;;;;;2.92;1.77;;;17.40;51.60;;;;;;5076845;28;20048;-77
2021/08/22 11:59:28;;;;;;;3.95;2.13;;;17.40;53.00;;;;;;5078319;28;20435;-79
2021/08/22 12:02:22;;;;;;;2.70;2.00;;;17.40;51.50;;;;;;5084639;28;20051;-76
2021/08/22 12:05:20;;;;;;;3.00;2.30;;;17.50;54.50;;;;;;5082967;28;20040;-76
2021/08/22 12:08:10;;;;;;;3.00;2.50;;;17.40;52.60;;;;;;5080347;28;20040;-76
2021/08/22 12:11:09;;;;;;;3.75;2.20;;;17.40;53.20;;;;;;5084774;28;20040;-75
2021/08/22 12:13:57;;;;;;;4.03;2.70;;;17.40;55.10;;;;;;5084572;28;20134;-75
2021/08/22 12:16:56;;;;;;;5.40;3.17;;;17.40;57.60;;;;;;5081853;28;20048;-76
2021/08/22 12:19:45;;;;;;;6.43;3.20;;;17.30;58.60;;;;;;5079773;28;20043;-75
2021/08/22 12:22:34;;;;;;;4.03;2.83;;;17.40;58.00;;;;;;5086292;28;20040;-75
2021/08/22 12:25:25;;;;;;;4.03;2.90;;;17.20;58.80;;;;;;5086479;28;20055;-75
2021/08/22 12:28:26;;;;;;;5.13;3.05;;;17.20;60.30;;;;;;5080424;28;20546;-76
2021/08/22 12:31:16;;;;;;;4.47;3.22;;;17.20;60.50;;;;;;5099131;28;20051;-76
2021/08/22 12:34:08;;;;;;;4.68;3.47;;;17.20;61.20;;;;;;5103905;28;20043;-76
2021/08/22 12:36:56;;;;;;;5.25;3.80;;;17.10;61.40;;;;;;5099194;28;20044;-76
2021/08/22 12:39:55;;;;;;;4.40;2.90;;;17.20;61.80;;;;;;5104534;28;20044;-75
2021/08/22 12:42:43;;;;;;;4.32;3.40;;;17.30;62.10;;;;;;5102126;28;20055;-76
2021/08/22 12:45:33;;;;;;;4.50;3.10;;;17.30;61.60;;;;;;5104662;28;20058;-76
2021/08/22 12:48:22;;;;;;;3.33;2.72;;;17.40;61.50;;;;;;5102215;28;20043;-76
2021/08/22 12:51:10;;;;;;;4.00;2.60;;;17.60;62.20;;;;;;5099837;28;20044;-76
2021/08/22 12:53:59;;;;;;;4.55;3.00;;;17.60;60.80;;;;;;5089597;28;20046;-76
2021/08/22 12:56:49;;;;;;;4.93;2.90;;;17.60;61.80;;;;;;5085866;28;20052;-77
2021/08/22 12:59:38;;;;;;;4.07;2.88;;;17.70;63.00;;;;;;5104293;28;20050;-77
2021/08/22 13:02:28;;;;;;;4.07;2.95;;;17.80;62.60;;;;;;5089460;28;20127;-76
2021/08/22 13:05:17;;;;;;;5.03;2.97;;;17.80;59.90;;;;;;5100484;28;20415;-76
2021/08/22 13:08:05;;;;;;;4.03;2.80;;;17.70;60.30;;;;;;5101837;28;20048;-76
2021/08/22 13:10:54;;;;;;;3.92;3.00;;;17.90;61.30;;;;;;5101508;28;20046;-76
2021/08/22 13:13:42;;;;;;;6.15;2.53;;;17.70;58.30;;;;;;5103385;27;20055;-76
2021/08/22 13:16:30;;;;;;;4.45;2.90;;;17.70;59.60;;;;;;5100744;28;20512;-76
2021/08/22 13:19:20;;;;;;;3.50;2.60;;;17.60;58.70;;;;;;5099398;28;20415;-76
2021/08/22 13:22:09;;;;;;;4.00;3.08;;;17.60;59.30;;;;;;5094767;28;20563;-76
2021/08/22 13:24:58;;;;;;;4.47;2.75;;;17.60;59.80;;;;;;5097520;28;20036;-75
2021/08/22 13:27:46;;;;;;;3.58;2.78;;;17.40;58.80;;;;;;5096729;28;20375;-76
2021/08/22 13:30:35;;;;;;;3.97;3.20;;;17.50;58.90;;;;;;5098897;28;20750;-77
2021/08/22 13:33:24;;;;;;;4.47;3.20;;;17.60;58.70;;;;;;5104191;28;20406;-76
2021/08/22 13:36:14;;;;;;;4.53;3.13;;;17.50;58.40;;;;;;5097746;28;20173;-77
2021/08/22 13:39:02;;;;;;;4.80;3.45;;;17.50;55.50;;;;;;5099261;28;20075;-76
2021/08/22 13:41:51;;;;;;;3.53;2.80;;;17.60;56.20;;;;;;5101003;28;20062;-76
2021/08/22 13:44:39;;;;;;;3.50;2.92;;;17.70;58.10;;;;;;5102691;28;20153;-76
2021/08/22 13:47:27;;;;;;;5.25;2.78;;;17.80;56.40;;;;;;5089012;28;20058;-77
2021/08/22 13:50:16;;;;;;;3.47;2.70;;;17.80;56.40;;;;;;5102477;28;20411;-76
2021/08/22 13:53:07;;;;;;;4.15;3.00;;;17.80;55.40;;;;;;5104375;28;20058;-76
2021/08/22 13:55:55;;;;;;;3.50;2.90;;;17.80;56.40;;;;;;5100310;28;20761;-76
2021/08/22 13:58:45;;;;;;;5.15;3.10;;;17.90;58.70;;;;;;5102188;28;20059;-76
2021/08/22 14:01:33;;;;;;;4.65;2.88;;;18.00;57.50;;;;;;5107692;28;20665;-76
2021/08/22 14:04:22;;;;;;;7.35;3.03;;;18.30;59.10;;;;;;5073953;28;21595;-75
2021/08/22 14:07:10;;;;;;;3.60;2.95;;;18.20;56.70;;;;;;5087126;28;20333;-77
2021/08/22 14:10:00;;;;;;;3.58;2.78;;;18.30;55.60;;;;;;5105460;28;20044;-77
2021/08/22 14:12:49;;;;;;;3.65;2.97;;;18.40;54.40;;;;;;5102641;28;20039;-76
2021/08/22 14:15:38;;;;;;;4.47;2.80;;;18.50;55.10;;;;;;5104609;28;20036;-77
2021/08/22 14:18:26;;;;;;;3.88;2.60;;;18.60;53.00;;;;;;5087183;28;20058;-77
2021/08/22 14:21:14;;;;;;;4.70;2.92;;;18.40;54.50;;;;;;5107172;28;20057;-77
2021/08/22 14:24:06;;;;;;;3.20;2.90;;;18.30;55.50;;;;;;5105652;28;20050;-76
2021/08/22 14:26:58;;;;;;;4.70;2.75;;;18.40;55.60;;;;;;5088981;28;20415;-76
2021/08/22 14:29:47;;;;;;;5.35;3.50;;;18.30;55.80;;;;;;5107916;27;20043;-76
2021/08/22 14:32:36;;;;;;;4.55;3.33;;;18.50;56.20;;;;;;5085226;28;20056;-75
2021/08/22 14:35:25;;;;;;;5.22;3.58;;;18.50;56.00;;;;;;5100010;28;20124;-75
2021/08/22 14:38:14;;;;;;;5.93;3.65;;;18.60;54.20;;;;;;5087873;28;20048;-76
2021/08/22 14:41:03;;;;;;;4.95;3.58;;;18.70;53.70;;;;;;5073672;28;20087;-76
2021/08/22 14:43:53;;;;;;;6.63;3.53;;;18.60;50.40;;;;;;5053762;28;20472;-76
2021/08/22 14:46:42;;;;;;;3.65;3.10;;;18.80;54.90;;;;;;5076651;28;20062;-76
2021/08/22 14:49:31;;;;;;;4.05;3.38;;;19.00;56.70;;;;;;5082342;28;20048;-76
2021/08/22 14:52:21;;;;;;;5.32;3.22;;;18.90;52.20;;;;;;5086302;28;20052;-76
2021/08/22 14:55:10;;;;;;;4.50;3.67;;;19.00;55.90;;;;;;5080118;28;20040;-76
2021/08/22 14:57:58;;;;;;;4.63;2.95;;;18.90;51.50;;;;;;5078191;28;20054;-76